LERM weather

Robledillo De Mohernando Airport
Robledillo De Mohernando, Castilla-La Mancha, Spain

Public forecast

Using degrees Celsius for public forecast. Weather courtesy of forecast.io.

METAR (pilot weather report)

Closest report is Torrejón Airport, 23.9 nm (44.3 km) SSW. Retrieved 2019/09/16 15:00 UTC (24 minutes ago):

LETO 161500Z 25004KT 160V300 9999 FEW068 26/17 Q1019 NOSIG

TAF (pilot weather forecast)

Closest forecast is Torrejón Airport, 23.9 nm (44.3 km) SSW. Retrieved 2019/09/16 12:27 UTC (3 hours ago):

TAF LETO 161100Z 1612/1712 VRB05KT 9999 FEW028 TX25/1615Z TN14/1706Z